Time;durP1;ratioP1;P1;durP2;ratioP2;P2;SDS_P1;SDS_P2;PMS_P1;PMS_P2;Temp;Humidity;BMP_temperature;BMP_pressure;BME280_temperature;BME280_humidity;BME280_pressure;Samples;Min_cycle;Max_cycle;Signal;HPM_P1;HPM_P2
2021/05/18 00:00:32;;;;;;;2.73;0.80;;;10.90;99.90;;;;;;5095162;28;20260;-46
2021/05/18 00:02:58;;;;;;;1.07;0.70;;;10.90;99.90;;;;;;5095197;28;20193;-44
2021/05/18 00:05:25;;;;;;;2.40;1.03;;;10.90;99.90;;;;;;5093914;28;20243;-50
2021/05/18 00:08:00;;;;;;;1.00;0.80;;;11.00;99.90;;;;;;5095282;28;20250;-45
2021/05/18 00:13:13;;;;;;;1.90;0.70;;;10.90;99.90;;;;;;5094627;28;20160;-49
2021/05/18 00:15:40;;;;;;;2.43;0.90;;;10.80;99.90;;;;;;5094683;28;20177;-47
2021/05/18 00:18:06;;;;;;;1.23;0.80;;;10.80;99.90;;;;;;5088566;28;20182;-45
2021/05/18 00:20:34;;;;;;;1.47;0.60;;;10.80;99.90;;;;;;5074891;28;20166;-48
2021/05/18 00:23:01;;;;;;;1.00;0.90;;;10.70;99.90;;;;;;5074305;28;20209;-47
2021/05/18 00:25:27;;;;;;;1.00;0.70;;;10.70;99.90;;;;;;5075005;28;20257;-47
2021/05/18 00:27:52;;;;;;;1.10;0.70;;;10.70;99.90;;;;;;5074410;28;20229;-49
2021/05/18 00:30:18;;;;;;;0.77;0.73;;;10.70;99.90;;;;;;5074382;28;20599;-49
2021/05/18 00:32:44;;;;;;;1.13;0.77;;;10.70;99.90;;;;;;5073234;28;20186;-47
2021/05/18 00:35:11;;;;;;;1.27;0.77;;;10.70;99.90;;;;;;5074296;28;20181;-44
2021/05/18 00:37:37;;;;;;;0.87;0.83;;;10.60;99.90;;;;;;5073216;28;20186;-49
2021/05/18 00:40:09;;;;;;;0.83;0.50;;;10.70;99.90;;;;;;5074650;28;20288;-45
2021/05/18 00:42:48;;;;;;;1.53;0.60;;;10.60;99.90;;;;;;5074166;28;20190;-44
2021/05/18 00:45:15;;;;;;;0.70;0.70;;;10.70;99.90;;;;;;5072995;28;20673;-49
2021/05/18 00:47:40;;;;;;;0.97;0.70;;;10.60;99.90;;;;;;5074501;28;20190;-46
2021/05/18 00:50:07;;;;;;;0.77;0.63;;;10.70;99.90;;;;;;5073144;28;20170;-48
2021/05/18 00:52:33;;;;;;;0.77;0.67;;;10.60;99.90;;;;;;5073849;28;20184;-50
2021/05/18 00:55:05;;;;;;;0.77;0.60;;;10.60;99.90;;;;;;5074522;28;20170;-47
2021/05/18 01:00:16;;;;;;;1.67;0.90;;;10.60;99.90;;;;;;5074263;28;20324;-46
2021/05/18 01:02:44;;;;;;;1.80;0.50;;;10.60;99.90;;;;;;5073377;28;20300;-47
2021/05/18 01:05:17;;;;;;;0.90;0.67;;;10.60;99.90;;;;;;5073828;28;20174;-44
2021/05/18 01:07:42;;;;;;;1.40;0.60;;;10.60;99.90;;;;;;5072735;28;20225;-44
2021/05/18 01:10:08;;;;;;;1.83;0.60;;;10.60;99.90;;;;;;5074032;28;20267;-48
2021/05/18 01:12:34;;;;;;;0.57;0.50;;;10.60;99.90;;;;;;5072506;28;20162;-49
2021/05/18 01:15:00;;;;;;;1.80;0.80;;;10.60;99.90;;;;;;5074203;28;20267;-50
2021/05/18 01:17:26;;;;;;;0.40;0.40;;;10.60;99.90;;;;;;5073888;28;20281;-52
2021/05/18 01:19:52;;;;;;;1.10;0.60;;;10.50;99.90;;;;;;5073711;28;20625;-47
2021/05/18 01:22:17;;;;;;;1.23;0.60;;;10.50;99.90;;;;;;5076213;28;20202;-47
2021/05/18 01:24:43;;;;;;;0.90;0.70;;;10.60;99.90;;;;;;5077436;28;20629;-47
2021/05/18 01:27:09;;;;;;;1.30;0.63;;;10.60;99.90;;;;;;5077253;28;20205;-46
2021/05/18 01:29:35;;;;;;;0.63;0.60;;;10.60;99.90;;;;;;5078262;28;20514;-48
2021/05/18 01:32:02;;;;;;;1.17;0.60;;;10.60;99.90;;;;;;5076764;28;20264;-51
2021/05/18 01:34:27;;;;;;;1.53;0.60;;;10.60;99.90;;;;;;5077024;28;20171;-48
2021/05/18 01:36:54;;;;;;;1.90;0.67;;;10.60;99.90;;;;;;5077449;28;20202;-50
2021/05/18 01:44:32;;;;;;;0.50;0.50;;;10.60;99.90;;;;;;5077517;28;20539;-51
2021/05/18 01:46:58;;;;;;;1.90;0.50;;;10.60;99.90;;;;;;5077252;28;20200;-48
2021/05/18 01:49:23;;;;;;;0.40;0.40;;;10.60;99.90;;;;;;5076584;28;20260;-45
2021/05/18 01:51:54;;;;;;;2.00;0.70;;;10.60;99.90;;;;;;5077488;28;20186;-46
2021/05/18 01:54:28;;;;;;;2.50;0.50;;;10.60;99.90;;;;;;5076322;28;20186;-48
2021/05/18 01:59:40;;;;;;;0.60;0.60;;;10.60;99.90;;;;;;5076637;28;20188;-48
2021/05/18 02:02:06;;;;;;;0.60;0.57;;;10.50;99.90;;;;;;5076728;28;20285;-48
2021/05/18 02:04:45;;;;;;;1.47;0.67;;;10.50;99.90;;;;;;5077427;28;20182;-48
2021/05/18 02:07:23;;;;;;;1.83;0.77;;;10.50;99.90;;;;;;5077930;28;20201;-47
2021/05/18 02:09:49;;;;;;;1.13;0.60;;;10.50;99.90;;;;;;5075709;28;20645;-49
2021/05/18 02:12:15;;;;;;;1.97;0.50;;;10.50;99.90;;;;;;5076602;28;20277;-50
2021/05/18 02:14:43;;;;;;;0.70;0.40;;;10.60;99.90;;;;;;5076208;28;20315;-47
2021/05/18 02:17:30;;;;;;;1.50;0.67;;;10.60;99.90;;;;;;5076950;28;20213;-49
2021/05/18 02:25:20;;;;;;;1.00;0.70;;;10.60;99.90;;;;;;5077134;28;20175;-46
2021/05/18 02:27:47;;;;;;;1.17;0.50;;;10.50;99.90;;;;;;5076785;28;20194;-46
2021/05/18 02:30:14;;;;;;;0.77;0.60;;;10.50;99.90;;;;;;5076553;28;20626;-47
2021/05/18 02:32:40;;;;;;;0.97;0.53;;;10.50;99.90;;;;;;5075133;28;20227;-46
2021/05/18 02:35:08;;;;;;;0.93;0.60;;;10.50;99.90;;;;;;5076659;28;20174;-51
2021/05/18 02:37:37;;;;;;;0.83;0.60;;;10.50;99.90;;;;;;5075444;28;20275;-47
2021/05/18 02:40:06;;;;;;;0.57;0.40;;;10.60;99.90;;;;;;5076260;28;20201;-45
2021/05/18 02:42:31;;;;;;;2.13;0.60;;;10.60;99.90;;;;;;5076452;28;20293;-47
2021/05/18 02:45:08;;;;;;;1.83;0.80;;;10.50;99.90;;;;;;5077110;28;20253;-50
2021/05/18 02:50:17;;;;;;;1.17;0.70;;;10.30;99.90;;;;;;5076421;28;20300;-49
2021/05/18 02:52:43;;;;;;;0.67;0.67;;;10.20;99.90;;;;;;5076178;28;20256;-47
2021/05/18 02:55:16;;;;;;;0.70;0.60;;;10.20;99.90;;;;;;5074936;28;20558;-46
2021/05/18 02:57:43;;;;;;;1.43;0.60;;;10.20;99.90;;;;;;5077069;28;20190;-43
2021/05/18 03:00:18;;;;;;;1.33;0.70;;;10.20;99.90;;;;;;5075005;28;20304;-48
2021/05/18 03:02:43;;;;;;;1.47;0.60;;;10.20;99.90;;;;;;5076028;28;20208;-49
2021/05/18 03:05:10;;;;;;;1.00;0.70;;;10.30;99.90;;;;;;5074570;28;20174;-53
2021/05/18 03:07:36;;;;;;;0.67;0.67;;;10.30;99.90;;;;;;5075838;28;20209;-47
2021/05/18 03:10:04;;;;;;;1.50;0.70;;;10.20;99.90;;;;;;5075024;28;20542;-48
2021/05/18 03:12:30;;;;;;;0.63;0.60;;;10.20;99.90;;;;;;5075798;28;20684;-44
2021/05/18 03:14:56;;;;;;;0.70;0.60;;;10.30;99.90;;;;;;5074769;28;20214;-46
2021/05/18 03:17:22;;;;;;;2.70;0.70;;;10.30;99.90;;;;;;5076128;28;20206;-45
2021/05/18 03:19:47;;;;;;;0.83;0.63;;;10.30;99.90;;;;;;5075010;28;20206;-52
2021/05/18 03:22:13;;;;;;;0.53;0.53;;;10.30;99.90;;;;;;5075017;28;20201;-46
2021/05/18 03:24:42;;;;;;;0.70;0.70;;;10.30;99.90;;;;;;5075725;28;20622;-47
2021/05/18 03:27:09;;;;;;;0.80;0.77;;;10.40;99.90;;;;;;5075443;28;20244;-44
2021/05/18 03:29:35;;;;;;;0.80;0.70;;;10.40;99.90;;;;;;5075379;28;20652;-48
2021/05/18 03:34:46;;;;;;;0.83;0.60;;;10.40;99.90;;;;;;5083267;28;20529;-50
2021/05/18 03:37:26;;;;;;;0.63;0.63;;;10.50;99.90;;;;;;5094986;28;20561;-46
2021/05/18 03:39:54;;;;;;;1.63;0.73;;;10.50;99.90;;;;;;5095350;28;20193;-44
2021/05/18 03:42:35;;;;;;;1.70;0.93;;;10.50;99.90;;;;;;5095305;28;20216;-47
2021/05/18 03:53:19;;;;;;;0.60;0.60;;;10.40;99.90;;;;;;5095368;28;20188;-53
2021/05/18 03:58:42;;;;;;;0.70;0.60;;;10.40;99.90;;;;;;5095407;28;20187;-47
2021/05/18 04:12:12;;;;;;;1.57;0.60;;;10.50;99.90;;;;;;5094942;28;20188;-50
2021/05/18 04:17:23;;;;;;;0.60;0.50;;;10.50;99.90;;;;;;5095156;28;20273;-47
2021/05/18 04:20:20;;;;;;;0.87;0.60;;;10.50;99.90;;;;;;5093730;28;20613;-50
2021/05/18 04:22:51;;;;;;;1.80;0.70;;;10.50;99.90;;;;;;5088453;28;20209;-44
2021/05/18 04:39:08;;;;;;;0.50;0.50;;;10.70;99.90;;;;;;5094800;28;20223;-43
2021/05/18 04:52:48;;;;;;;1.17;0.67;;;10.70;99.90;;;;;;5077759;28;20178;-47
2021/05/18 05:00:26;;;;;;;2.20;0.70;;;10.70;99.90;;;;;;5073407;28;20565;-45
2021/05/18 05:08:21;;;;;;;1.27;0.50;;;10.60;99.90;;;;;;5093555;28;20772;-48
2021/05/18 05:15:42;;;;;;;1.57;0.70;;;10.70;99.90;;;;;;5093158;28;20188;-51
2021/05/18 05:18:09;;;;;;;1.13;0.90;;;10.80;99.90;;;;;;5094137;28;20173;-44
2021/05/18 05:20:35;;;;;;;1.10;0.77;;;10.80;99.90;;;;;;5092766;28;20197;-48
2021/05/18 05:23:01;;;;;;;0.67;0.57;;;10.80;99.90;;;;;;5093441;28;20197;-46
2021/05/18 05:25:27;;;;;;;0.87;0.87;;;10.80;99.90;;;;;;5094005;28;20176;-47
2021/05/18 05:27:52;;;;;;;0.60;0.50;;;10.80;99.90;;;;;;5092208;28;20196;-49
2021/05/18 05:30:18;;;;;;;0.70;0.70;;;10.70;99.90;;;;;;5087627;28;20176;-45
2021/05/18 05:32:44;;;;;;;1.43;0.90;;;10.80;99.90;;;;;;5091680;28;20256;-43
2021/05/18 05:35:10;;;;;;;1.77;0.60;;;10.80;99.90;;;;;;5093337;28;20213;-49
2021/05/18 05:37:37;;;;;;;1.00;0.60;;;10.90;99.90;;;;;;5092996;28;20198;-52
2021/05/18 05:40:04;;;;;;;0.57;0.53;;;10.90;99.90;;;;;;5091069;28;20307;-47
2021/05/18 05:42:30;;;;;;;2.30;0.63;;;11.00;99.90;;;;;;5092498;28;20546;-47
2021/05/18 05:44:55;;;;;;;0.80;0.43;;;11.70;99.90;;;;;;5092699;28;20665;-44
2021/05/18 05:47:21;;;;;;;1.17;0.60;;;10.90;99.90;;;;;;5092175;28;20224;-46
2021/05/18 05:49:46;;;;;;;0.90;0.60;;;10.90;99.90;;;;;;5092897;28;20180;-44
2021/05/18 05:52:18;;;;;;;1.33;0.73;;;10.90;99.90;;;;;;5093376;28;20634;-50
2021/05/18 05:54:44;;;;;;;0.67;0.60;;;11.00;99.90;;;;;;5092448;28;20181;-48
2021/05/18 05:57:10;;;;;;;1.03;0.60;;;11.10;99.90;;;;;;5093205;28;20327;-49
2021/05/18 05:59:36;;;;;;;1.50;0.63;;;11.20;99.90;;;;;;5092394;28;20177;-49
2021/05/18 06:02:03;;;;;;;1.63;0.70;;;11.10;99.90;;;;;;5092422;28;20220;-44
2021/05/18 06:04:29;;;;;;;0.67;0.60;;;11.00;99.90;;;;;;5093713;28;20185;-47
2021/05/18 06:06:55;;;;;;;0.60;0.53;;;10.90;99.90;;;;;;5093282;28;20190;-47
2021/05/18 06:09:21;;;;;;;1.17;0.60;;;10.90;99.90;;;;;;5095733;28;20207;-48
2021/05/18 06:12:15;;;;;;;1.67;0.50;;;10.90;99.90;;;;;;5097045;28;20185;-47
2021/05/18 06:37:03;;;;;;;1.90;0.60;;;11.00;99.90;;;;;;4972403;28;20268;-46
2021/05/18 06:47:31;;;;;;;0.70;0.70;;;10.80;99.90;;;;;;4974848;28;20252;-48
2021/05/18 06:50:21;;;;;;;1.10;0.73;;;10.90;99.90;;;;;;4975300;28;20178;-46
2021/05/18 06:52:47;;;;;;;1.43;0.80;;;10.90;99.90;;;;;;4975177;28;20637;-47
2021/05/18 06:55:15;;;;;;;2.40;1.20;;;10.90;99.90;;;;;;5005012;28;20674;-46
2021/05/18 06:57:43;;;;;;;2.13;0.90;;;11.00;99.90;;;;;;5013955;28;20696;-46
2021/05/18 07:00:11;;;;;;;1.57;0.77;;;10.90;99.90;;;;;;5014622;28;20191;-45
2021/05/18 07:02:39;;;;;;;0.90;0.70;;;10.90;99.90;;;;;;4996467;28;20290;-47
2021/05/18 07:05:18;;;;;;;1.17;0.70;;;10.90;99.90;;;;;;5014417;28;20212;-47
2021/05/18 07:07:45;;;;;;;0.60;0.60;;;10.90;99.90;;;;;;5014141;28;20258;-47
2021/05/18 07:10:11;;;;;;;0.50;0.50;;;10.80;99.90;;;;;;5012613;28;20196;-45
2021/05/18 07:12:38;;;;;;;2.37;0.60;;;10.80;99.90;;;;;;5067032;28;20192;-47
2021/05/18 07:15:05;;;;;;;0.90;0.70;;;10.80;99.90;;;;;;5094962;28;20827;-46
2021/05/18 07:17:30;;;;;;;1.27;1.03;;;10.90;99.90;;;;;;5096140;28;20790;-45
2021/05/18 07:19:56;;;;;;;0.70;0.70;;;10.90;99.90;;;;;;5095135;28;20223;-48
2021/05/18 07:22:21;;;;;;;0.50;0.50;;;10.80;99.90;;;;;;5095858;28;20288;-46
2021/05/18 07:24:47;;;;;;;0.67;0.67;;;10.80;99.90;;;;;;5095830;28;20201;-47
2021/05/18 07:27:12;;;;;;;1.40;0.87;;;10.80;99.90;;;;;;5095803;28;20194;-46
2021/05/18 07:29:38;;;;;;;2.57;0.93;;;10.80;99.90;;;;;;5095828;28;20511;-46
2021/05/18 07:32:04;;;;;;;0.80;0.80;;;10.80;99.90;;;;;;5095790;28;20271;-47
2021/05/18 07:34:29;;;;;;;0.97;0.70;;;10.90;99.90;;;;;;5096491;28;20174;-44
2021/05/18 07:36:56;;;;;;;0.77;0.77;;;10.90;99.90;;;;;;5095702;28;20572;-46
2021/05/18 07:39:22;;;;;;;0.70;0.70;;;11.00;99.90;;;;;;5094458;28;20201;-47
2021/05/18 07:41:47;;;;;;;1.10;1.00;;;11.00;99.90;;;;;;5095013;28;20540;-48
2021/05/18 07:44:13;;;;;;;1.10;0.80;;;11.00;99.90;;;;;;5095563;28;20166;-44
2021/05/18 07:46:40;;;;;;;0.80;0.80;;;11.00;99.90;;;;;;5094372;28;20197;-46
2021/05/18 07:49:14;;;;;;;1.00;0.80;;;11.00;99.90;;;;;;5095476;28;20239;-44
2021/05/18 07:59:54;;;;;;;0.40;0.40;;;11.10;99.90;;;;;;5094329;28;20181;-51
2021/05/18 08:07:40;;;;;;;2.30;0.80;;;11.40;99.90;;;;;;5094425;28;20208;-44
2021/05/18 08:12:39;;;;;;;1.67;0.77;;;11.80;99.90;;;;;;5093882;28;20179;-47
2021/05/18 10:34:27;;;;;;;1.40;1.10;;;14.90;99.90;;;;;;5089425;28;20182;-52
2021/05/18 10:36:53;;;;;;;2.67;0.90;;;14.80;99.90;;;;;;5096674;28;20202;-45
2021/05/18 10:39:28;;;;;;;0.80;0.80;;;14.80;99.90;;;;;;5095865;28;20189;-49
2021/05/18 10:41:54;;;;;;;1.77;0.90;;;14.80;99.90;;;;;;5095006;28;20250;-46
2021/05/18 10:44:20;;;;;;;1.40;0.87;;;14.80;99.90;;;;;;5095477;28;20174;-46
2021/05/18 10:46:52;;;;;;;1.27;0.80;;;14.90;99.90;;;;;;5093442;28;20277;-47
2021/05/18 10:49:35;;;;;;;0.70;0.70;;;15.10;99.90;;;;;;5093050;28;20677;-49
2021/05/18 10:52:02;;;;;;;1.63;0.80;;;15.00;99.90;;;;;;5093930;28;20170;-47
2021/05/18 10:54:28;;;;;;;0.50;0.50;;;15.10;99.90;;;;;;5092869;28;20186;-50
2021/05/18 10:57:01;;;;;;;0.50;0.50;;;14.80;99.90;;;;;;5093782;28;20268;-48
2021/05/18 10:59:41;;;;;;;0.43;0.40;;;14.40;99.90;;;;;;5094597;28;20201;-46
2021/05/18 11:02:33;;;;;;;0.40;0.40;;;14.50;99.90;;;;;;5095448;28;20208;-48
2021/05/18 11:05:25;;;;;;;0.93;0.60;;;14.70;99.90;;;;;;5096569;28;20235;-47
2021/05/18 11:07:51;;;;;;;1.50;0.60;;;14.80;99.90;;;;;;5092882;28;20288;-45
2021/05/18 11:10:18;;;;;;;0.80;0.80;;;15.50;99.90;;;;;;5095839;28;20258;-47
2021/05/18 11:12:48;;;;;;;0.73;0.60;;;15.10;99.90;;;;;;5095606;28;20537;-47
2021/05/18 11:15:18;;;;;;;1.57;0.50;;;15.30;99.90;;;;;;5094784;28;20213;-47
2021/05/18 11:17:49;;;;;;;0.67;0.67;;;15.50;99.90;;;;;;5095613;28;20186;-46
2021/05/18 11:25:56;;;;;;;0.70;0.63;;;15.40;99.90;;;;;;5095792;28;20166;-50
2021/05/18 11:28:23;;;;;;;0.70;0.60;;;15.20;99.90;;;;;;5095584;28;20326;-49
2021/05/18 11:30:57;;;;;;;0.60;0.60;;;15.20;99.90;;;;;;5094993;28;20174;-47
2021/05/18 11:33:30;;;;;;;2.47;0.60;;;15.20;99.90;;;;;;5095886;28;20177;-46
2021/05/18 11:36:00;;;;;;;0.93;0.47;;;15.20;99.90;;;;;;5094978;28;20174;-46
2021/05/18 11:38:27;;;;;;;0.60;0.60;;;15.20;99.90;;;;;;5096206;28;20217;-46
2021/05/18 11:40:53;;;;;;;0.60;0.53;;;15.40;99.90;;;;;;5096024;28;20178;-46
2021/05/18 11:43:26;;;;;;;0.70;0.50;;;15.50;99.90;;;;;;5095234;28;20267;-46
2021/05/18 11:46:03;;;;;;;0.60;0.60;;;15.30;99.90;;;;;;5095009;28;20182;-49
2021/05/18 11:48:29;;;;;;;1.57;0.80;;;15.20;99.90;;;;;;5095864;28;20162;-48
2021/05/18 11:51:13;;;;;;;1.23;0.90;;;15.10;99.90;;;;;;5094200;28;20201;-45
2021/05/18 11:53:47;;;;;;;1.23;0.90;;;14.90;99.90;;;;;;5095495;28;20204;-46
2021/05/18 11:56:28;;;;;;;3.60;0.70;;;14.70;99.90;;;;;;5095914;28;20228;-45
2021/05/18 11:59:03;;;;;;;1.30;0.60;;;14.10;99.90;;;;;;5095136;28;20531;-48
2021/05/18 12:01:30;;;;;;;3.07;0.80;;;13.10;99.90;;;;;;5094353;28;20190;-45
2021/05/18 12:04:00;;;;;;;7.57;0.97;;;12.60;99.90;;;;;;5094490;28;20178;-46
2021/05/18 12:06:26;;;;;;;2.17;0.90;;;12.20;99.90;;;;;;5094756;28;20220;-46
2021/05/18 12:08:57;;;;;;;3.57;1.13;;;11.90;99.90;;;;;;5094781;28;20175;-47
2021/05/18 12:11:23;;;;;;;1.00;0.80;;;11.40;99.90;;;;;;5094790;28;20641;-45
2021/05/18 12:13:50;;;;;;;4.87;1.00;;;11.20;99.90;;;;;;5094066;28;20197;-45
2021/05/18 12:16:21;;;;;;;1.67;0.87;;;11.10;99.90;;;;;;5094983;28;20270;-45
2021/05/18 12:18:53;;;;;;;4.13;0.83;;;11.00;99.90;;;;;;5095374;28;20215;-44
2021/05/18 12:21:23;;;;;;;1.40;0.87;;;11.00;99.90;;;;;;5094002;28;20185;-48
2021/05/18 12:24:05;;;;;;;0.90;0.70;;;11.00;99.90;;;;;;5095003;28;20641;-45
2021/05/18 12:26:32;;;;;;;1.13;0.83;;;11.10;99.90;;;;;;5095045;28;20189;-47
2021/05/18 12:29:04;;;;;;;1.20;0.70;;;11.20;99.90;;;;;;5094974;28;20223;-46
2021/05/18 12:31:36;;;;;;;2.20;0.73;;;11.50;99.90;;;;;;5094182;28;20192;-46
2021/05/18 12:34:04;;;;;;;0.83;0.60;;;11.90;99.90;;;;;;5095100;28;20197;-47
2021/05/18 12:36:31;;;;;;;1.67;0.40;;;12.20;99.90;;;;;;5093530;28;20225;-48
2021/05/18 12:39:16;;;;;;;1.40;0.60;;;12.40;99.90;;;;;;5092227;28;20239;-49
2021/05/18 12:41:49;;;;;;;0.67;0.33;;;14.00;99.90;;;;;;5094347;28;20220;-47
2021/05/18 12:44:20;;;;;;;0.47;0.40;;;12.50;99.90;;;;;;5093227;28;20290;-47
2021/05/18 12:46:57;;;;;;;0.87;0.50;;;12.50;99.90;;;;;;5094865;28;20189;-47
2021/05/18 12:49:31;;;;;;;0.40;0.40;;;12.60;99.90;;;;;;5094901;28;20227;-46
2021/05/18 12:52:06;;;;;;;0.40;0.40;;;12.60;99.90;;;;;;5093604;28;20505;-45
2021/05/18 12:54:52;;;;;;;0.83;0.40;;;12.70;99.90;;;;;;5094634;28;20180;-48
2021/05/18 12:57:21;;;;;;;2.00;0.60;;;12.80;99.90;;;;;;5094255;28;20201;-54
2021/05/18 12:59:56;;;;;;;1.13;0.50;;;13.00;99.90;;;;;;5094235;28;20184;-49
2021/05/18 13:02:41;;;;;;;1.07;0.40;;;13.20;99.90;;;;;;5093234;28;20214;-47
2021/05/18 13:05:08;;;;;;;0.40;0.40;;;13.40;99.90;;;;;;5094811;28;20221;-47
2021/05/18 13:07:34;;;;;;;0.80;0.50;;;13.60;99.90;;;;;;5093537;28;20196;-45
2021/05/18 13:10:19;;;;;;;0.63;0.50;;;13.70;99.90;;;;;;5094113;28;20624;-46
2021/05/18 13:12:46;;;;;;;0.50;0.50;;;13.80;99.90;;;;;;5092770;28;20196;-46
2021/05/18 13:15:19;;;;;;;0.93;0.50;;;14.20;99.90;;;;;;5092749;28;20268;-46
2021/05/18 13:17:53;;;;;;;2.17;0.70;;;14.50;99.90;;;;;;5090758;28;20268;-48
2021/05/18 13:20:19;;;;;;;0.77;0.60;;;14.80;99.90;;;;;;5091570;28;20178;-48
2021/05/18 13:22:49;;;;;;;0.50;0.50;;;15.10;99.90;;;;;;5091560;28;20208;-48
2021/05/18 13:27:57;;;;;;;0.50;0.50;;;15.20;99.90;;;;;;5091898;28;20205;-50
2021/05/18 13:30:25;;;;;;;0.63;0.43;;;15.00;99.90;;;;;;5092057;28;20170;-47
2021/05/18 13:32:50;;;;;;;0.60;0.43;;;14.90;99.90;;;;;;5093697;28;20178;-46
2021/05/18 13:35:18;;;;;;;4.40;0.50;;;14.90;99.90;;;;;;5094418;28;20235;-48
2021/05/18 13:37:44;;;;;;;1.03;0.60;;;14.90;99.90;;;;;;5094294;28;20190;-47
2021/05/18 13:40:12;;;;;;;0.60;0.60;;;15.20;99.90;;;;;;5091462;28;20214;-46
2021/05/18 13:42:38;;;;;;;1.97;0.60;;;15.30;99.90;;;;;;5093783;28;20225;-47
2021/05/18 13:45:05;;;;;;;0.73;0.60;;;15.70;99.90;;;;;;5092814;28;20166;-50
2021/05/18 13:47:30;;;;;;;0.40;0.40;;;16.10;99.90;;;;;;5093592;28;20236;-45
2021/05/18 13:49:56;;;;;;;0.73;0.30;;;16.40;99.90;;;;;;5093160;28;20191;-46
2021/05/18 13:52:21;;;;;;;0.47;0.40;;;16.50;99.90;;;;;;5093193;28;20182;-48
2021/05/18 13:54:49;;;;;;;1.23;0.43;;;16.80;99.90;;;;;;5093027;28;20520;-47
2021/05/18 13:57:14;;;;;;;0.40;0.40;;;16.70;99.90;;;;;;5087455;28;20239;-46
2021/05/18 13:59:40;;;;;;;0.40;0.40;;;16.70;99.90;;;;;;5073507;28;20225;-47
2021/05/18 14:02:06;;;;;;;2.10;1.37;;;16.80;99.90;;;;;;5073496;28;20195;-52
2021/05/18 14:04:31;;;;;;;4.17;3.27;;;16.80;99.90;;;;;;5072966;28;20181;-50
2021/05/18 14:09:53;;;;;;;0.40;0.40;;;17.10;99.90;;;;;;5073353;28;20164;-45
2021/05/18 14:12:18;;;;;;;0.30;0.30;;;16.80;99.90;;;;;;5072047;28;20635;-50
2021/05/18 14:14:44;;;;;;;1.23;0.40;;;16.70;99.90;;;;;;5073251;28;20640;-49
2021/05/18 14:17:09;;;;;;;0.30;0.30;;;16.40;99.90;;;;;;5073249;28;20603;-49
2021/05/18 14:19:35;;;;;;;0.43;0.30;;;16.20;99.90;;;;;;5073274;28;20225;-50
2021/05/18 14:22:01;;;;;;;0.73;0.40;;;16.10;99.90;;;;;;5071811;28;20210;-48
2021/05/18 14:24:38;;;;;;;0.57;0.50;;;16.10;99.90;;;;;;5072912;28;20708;-47
2021/05/18 14:27:07;;;;;;;0.37;0.30;;;16.30;99.90;;;;;;5073432;28;20198;-46
2021/05/18 14:29:34;;;;;;;0.70;0.70;;;16.50;99.90;;;;;;5075170;28;20174;-47
2021/05/18 14:32:00;;;;;;;0.90;0.40;;;16.70;99.90;;;;;;5076730;28;20181;-46
2021/05/18 14:34:25;;;;;;;1.90;0.30;;;16.90;99.90;;;;;;5075516;28;20191;-48
2021/05/18 14:36:51;;;;;;;0.30;0.30;;;16.90;99.90;;;;;;5076777;28;20528;-47
2021/05/18 14:39:23;;;;;;;0.50;0.30;;;16.80;99.90;;;;;;5074731;28;20325;-47
2021/05/18 14:44:33;;;;;;;0.30;0.27;;;16.50;99.90;;;;;;5076438;28;20174;-46
2021/05/18 14:55:02;;;;;;;0.40;0.40;;;16.20;99.90;;;;;;5074403;28;20178;-48
2021/05/18 14:57:28;;;;;;;0.37;0.30;;;16.20;99.90;;;;;;5074837;28;20194;-44
2021/05/18 14:59:53;;;;;;;0.30;0.30;;;16.20;99.90;;;;;;5076363;28;20167;-47
2021/05/18 15:02:19;;;;;;;0.30;0.30;;;16.00;99.90;;;;;;5074760;28;20293;-44
2021/05/18 15:04:45;;;;;;;0.70;0.40;;;15.90;99.90;;;;;;5076960;28;20166;-45
2021/05/18 15:07:11;;;;;;;0.30;0.30;;;15.90;99.90;;;;;;5075421;28;20187;-45
2021/05/18 15:09:39;;;;;;;1.37;0.37;;;16.00;99.90;;;;;;5075881;28;20557;-47
2021/05/18 15:12:06;;;;;;;1.10;0.47;;;16.00;99.90;;;;;;5075931;28;20175;-51
2021/05/18 15:14:32;;;;;;;0.40;0.40;;;15.90;99.90;;;;;;5074588;28;20593;-48
2021/05/18 15:16:58;;;;;;;1.60;0.30;;;15.70;99.90;;;;;;5076183;28;20199;-44
2021/05/18 15:19:26;;;;;;;0.40;0.20;;;15.70;99.90;;;;;;5075064;28;20273;-46
2021/05/18 15:21:51;;;;;;;0.30;0.30;;;15.90;99.90;;;;;;5074877;28;20543;-49
2021/05/18 15:24:17;;;;;;;0.50;0.40;;;15.50;99.90;;;;;;5075891;28;20166;-51
2021/05/18 15:26:43;;;;;;;0.70;0.50;;;15.40;99.90;;;;;;5075617;28;20195;-48
2021/05/18 15:29:08;;;;;;;0.43;0.43;;;15.30;99.90;;;;;;5075331;28;20171;-55
2021/05/18 15:31:34;;;;;;;0.40;0.40;;;15.10;99.90;;;;;;5075118;28;20249;-48
2021/05/18 15:34:00;;;;;;;0.53;0.40;;;15.00;99.90;;;;;;5074349;28;20195;-47
2021/05/18 15:36:26;;;;;;;1.07;0.50;;;15.10;99.90;;;;;;5075530;28;20197;-45
2021/05/18 15:38:53;;;;;;;0.50;0.50;;;15.20;99.90;;;;;;5074374;28;20220;-48
2021/05/18 15:41:19;;;;;;;2.10;0.53;;;15.30;99.90;;;;;;5074479;28;20171;-45
2021/05/18 15:43:45;;;;;;;0.17;0.17;;;15.50;99.90;;;;;;5074156;28;20222;-52
2021/05/18 15:46:11;;;;;;;0.20;0.20;;;15.50;99.90;;;;;;5075108;28;20198;-50
2021/05/18 15:48:37;;;;;;;0.20;0.20;;;15.30;99.90;;;;;;5075126;28;20174;-48
2021/05/18 15:51:02;;;;;;;0.20;0.20;;;15.20;99.90;;;;;;5074464;28;20169;-45
2021/05/18 15:53:29;;;;;;;0.40;0.20;;;15.20;99.90;;;;;;5075332;28;20549;-45
2021/05/18 15:55:54;;;;;;;0.77;0.20;;;15.20;99.90;;;;;;5075001;28;20224;-47
2021/05/18 15:58:20;;;;;;;0.20;0.20;;;15.30;99.90;;;;;;5075095;28;20183;-47
2021/05/18 16:00:51;;;;;;;1.70;0.43;;;15.40;99.90;;;;;;5075099;28;20199;-49
2021/05/18 16:03:16;;;;;;;0.20;0.20;;;15.50;99.90;;;;;;5080962;28;20216;-50
2021/05/18 16:05:42;;;;;;;0.20;0.20;;;15.50;99.90;;;;;;5094151;28;20579;-46
2021/05/18 16:10:52;;;;;;;1.00;0.40;;;15.20;99.90;;;;;;5093106;28;20158;-54
2021/05/18 16:13:18;;;;;;;0.30;0.30;;;15.00;99.90;;;;;;5094260;28;20205;-53
2021/05/18 16:15:44;;;;;;;2.00;1.10;;;15.00;99.90;;;;;;5093890;28;20197;-49
2021/05/18 16:18:09;;;;;;;0.63;0.40;;;15.90;99.90;;;;;;5093367;28;20189;-52
2021/05/18 16:20:35;;;;;;;0.47;0.30;;;15.30;99.90;;;;;;5094532;28;20614;-55
2021/05/18 16:23:00;;;;;;;1.30;0.40;;;15.50;99.90;;;;;;5092982;28;20190;-47
2021/05/18 16:25:26;;;;;;;0.67;0.57;;;15.70;99.90;;;;;;5094278;28;20189;-48
2021/05/18 16:27:51;;;;;;;0.40;0.40;;;15.80;99.90;;;;;;5088739;28;20255;-45
2021/05/18 16:30:17;;;;;;;0.50;0.40;;;15.90;99.90;;;;;;5091080;28;20263;-47
2021/05/18 16:32:42;;;;;;;0.50;0.30;;;16.10;99.90;;;;;;5093428;28;20171;-50
2021/05/18 16:35:08;;;;;;;0.67;0.40;;;16.30;99.90;;;;;;5094027;28;20184;-49
2021/05/18 16:37:34;;;;;;;1.17;0.50;;;16.30;99.90;;;;;;5087878;28;20237;-54
2021/05/18 16:40:00;;;;;;;1.20;0.33;;;16.20;99.90;;;;;;5091530;28;20198;-47
2021/05/18 16:42:25;;;;;;;0.70;0.40;;;16.30;99.90;;;;;;5093013;28;20229;-51
2021/05/18 16:44:51;;;;;;;3.63;0.43;;;16.10;99.90;;;;;;5093086;28;20176;-47
2021/05/18 16:47:16;;;;;;;0.60;0.50;;;15.90;99.90;;;;;;5093557;28;20278;-47
2021/05/18 16:49:42;;;;;;;0.23;0.23;;;15.80;99.90;;;;;;5093380;28;20200;-49
2021/05/18 16:52:07;;;;;;;0.40;0.40;;;15.70;99.90;;;;;;5094015;28;20200;-51
2021/05/18 16:54:33;;;;;;;1.90;0.40;;;15.70;99.90;;;;;;5091994;28;20174;-49
2021/05/18 16:56:59;;;;;;;0.63;0.63;;;15.60;99.90;;;;;;5087554;28;20241;-50
2021/05/18 16:59:24;;;;;;;1.10;0.50;;;15.50;99.90;;;;;;5092731;28;20866;-49
2021/05/18 17:01:50;;;;;;;1.03;0.40;;;15.60;99.90;;;;;;5092657;28;20208;-49
2021/05/18 17:04:18;;;;;;;0.57;0.57;;;15.30;99.90;;;;;;5092371;28;20186;-49
2021/05/18 17:06:46;;;;;;;0.57;0.30;;;15.20;99.90;;;;;;5091319;28;20645;-51
2021/05/18 17:09:12;;;;;;;2.40;0.90;;;14.90;99.90;;;;;;5091246;28;20568;-51
2021/05/18 17:11:40;;;;;;;1.80;0.40;;;14.90;99.90;;;;;;5092565;28;20178;-48
2021/05/18 17:14:06;;;;;;;0.70;0.50;;;14.90;99.90;;;;;;5092906;28;20178;-49
2021/05/18 17:16:32;;;;;;;1.70;0.40;;;14.90;99.90;;;;;;5091860;28;20208;-48
2021/05/18 17:18:58;;;;;;;0.27;0.27;;;14.90;99.90;;;;;;5091936;28;20193;-50
2021/05/18 17:21:24;;;;;;;0.30;0.30;;;14.90;99.90;;;;;;5092644;28;20191;-49
2021/05/18 17:23:50;;;;;;;0.40;0.40;;;15.00;99.90;;;;;;5091593;28;20205;-51
2021/05/18 17:26:15;;;;;;;0.30;0.30;;;15.00;99.90;;;;;;5090775;28;20677;-50
2021/05/18 17:28:41;;;;;;;0.60;0.40;;;14.90;99.90;;;;;;5090874;28;20162;-51
2021/05/18 17:31:09;;;;;;;1.03;0.33;;;15.00;99.90;;;;;;5089783;28;20177;-47
2021/05/18 17:33:35;;;;;;;0.50;0.50;;;15.00;99.90;;;;;;5090320;28;20599;-49
2021/05/18 17:36:01;;;;;;;0.70;0.53;;;14.90;99.90;;;;;;5091672;28;20188;-49
2021/05/18 17:38:26;;;;;;;0.50;0.50;;;14.80;99.90;;;;;;5090197;28;20195;-50
2021/05/18 17:40:52;;;;;;;0.93;0.60;;;14.70;99.90;;;;;;5090100;28;20265;-51
2021/05/18 17:43:18;;;;;;;0.77;0.70;;;14.60;99.90;;;;;;5090076;28;20189;-54
2021/05/18 17:45:44;;;;;;;0.50;0.50;;;14.60;99.90;;;;;;5090091;28;20184;-53
2021/05/18 17:48:10;;;;;;;0.30;0.30;;;14.40;99.90;;;;;;5090933;28;20259;-50
2021/05/18 17:50:35;;;;;;;0.57;0.50;;;14.30;99.90;;;;;;5091111;28;20251;-50
2021/05/18 17:53:01;;;;;;;0.40;0.40;;;14.20;99.90;;;;;;5090824;28;20235;-49